Las horas y fechas están en horario UTC.
Sumar 1 hora en el horario de invierno y 2 en el de verano.

Informes METAR cercanos

 

LEZL - Sevilla (civ/Mil, Spain
Distance from station: NNE 24km
Actualización: 22/06/2024 22:30
Despejado
Despejado
 Viento del SSO
Viento: SSO 13 km/h
Temperatura: 26°C
Rocío: 12°C
Humedad: 42%
Barómetro: 1015 hPa
Summary: Despejado
Visibility: greater than 10 km
2024/06/22 22:30 LEZL 222230Z 21007KT CAVOK 26/12 Q1015 NOSIG
LEMO - Moron (sp-Usafb), Spain
Distance from station: E 38km
Actualización: 22/06/2024 22:30
Despejado
Despejado
 Viento del S
Viento: S 13 km/h
Temperatura: 24°C
Rocío: 11°C
Humedad: 44%
Barómetro: 1016 hPa
Summary: Despejado
Visibility: greater than 10 km
2024/06/22 22:30 LEMO 222230Z 19007KT 160V230 CAVOK 24/11 Q1016 NOSIG
LEJR - Jerez (civ/Mil), Spain
Distance from station: S 53km
Actualización: 22/06/2024 22:30
Despejado
Despejado
 Viento del varies
Viento: varies 4 km/h
Temperatura: 20°C
Rocío: 13°C
Humedad: 64%
Barómetro: 1016 hPa
Summary: Despejado
Visibility: greater than 10 km
2024/06/22 22:30 LEJR 222230Z AUTO VRB02KT CAVOK 20/13 Q1016
 
LERT - Rota Naval Stati, Spain
Distance from station: SSO 71km
Actualización: 22/06/2024 22:30
Despejado
Despejado
 Viento del SE
Viento: SE 4 km/h
Temperatura: 22°C
Rocío: 16°C
Humedad: 69%
Barómetro: 1016 hPa
Summary: Despejado
Visibility: greater than 10 km
2024/06/22 22:30 LERT 222230Z 14002KT CAVOK 22/16 Q1016 NOSIG
LEBA - Cordoba Airport, Spain
Distance from station: ENE 128km
Actualización: 22/06/2024 22:30
Despejado
Despejado
 Viento del ESE
Viento: ESE 9 km/h, Racha: 35 km/h
Temperatura: 32°C
Rocío: 6°C
Humedad: 20%
Barómetro: 1014 hPa
Summary: Despejado
Visibility: greater than 10 km
2024/06/22 22:30 LEBA 222230Z AUTO 12005G19KT CAVOK 32/06 Q1014
LXGB - Gibraltar (civ/M, Gibraltar
Distance from station: SSE 137km
Actualización: 22/06/2024 22:20
Despejado
Despejado
 Viento del NE
Viento: NE 13 km/h
Temperatura: 21°C
Rocío: 16°C
Humedad: 73%
Barómetro: 1017 hPa
Clouds: Despejado
Visibility: 10 km
2024/06/22 22:20 LXGB 222220Z AUTO 04007KT 9999 NCD 21/16 Q1017
 
LEMG - Malaga (civ/Mil), Spain
Distance from station: ESE 150km
Actualización: 22/06/2024 22:30
Despejado
Despejado
 Viento del calm
Viento: Calma
Temperatura: 20°C
Rocío: 9°C
Humedad: 49%
Barómetro: 1017 hPa
Summary: Despejado
Visibility: greater than 10 km
2024/06/22 22:30 LEMG 222230Z 00000KT CAVOK 20/09 Q1017 NOSIG
GMTT - Tangier/Boukhalf, Morocco
Distance from station: S 169km
Actualización: 22/06/2024 22:30
Despejado
Despejado
 Viento del NE
Viento: NE 24 km/h
Temperatura: 23°C
Rocío: 14°C
Humedad: 57%
Barómetro: 1014 hPa
Summary: Despejado
Visibility: greater than 10 km
2024/06/22 22:30 GMTT 222230Z 05013KT CAVOK 23/14 Q1014 NOSIG
LPFR - Faro, Portugal
Distance from station: O 172km
Actualización: 22/06/2024 22:30
Despejado
Despejado
 Viento del N
Viento: N 15 km/h
Temperatura: 30°C
Rocío: 7°C
Humedad: 24%
Barómetro: 1015 hPa
Summary: Despejado
Visibility: greater than 10 km
2024/06/22 22:30 LPFR 222230Z 35008KT CAVOK 30/07 Q1015
 
LPBJ - Beja (por/Ger-Af, Portugal
Distance from station: ONO 192km
Actualización: 22/06/2024 22:00
Despejado
Despejado
 Viento del NO
Viento: NO 13 km/h
Temperatura: 23°C
Rocío: 12°C
Humedad: 50%
Barómetro: 1018 hPa
Summary: Despejado
Visibility: greater than 10 km
2024/06/22 22:00 LPBJ 222200Z 32007KT CAVOK 23/12 Q1018
LEBZ - Talavera Ab/Bada, Spain
Distance from station: NNO 194km
Actualización: 22/06/2024 19:30
NOT Current
Despejado
Despejado
 Viento del NO
Viento: NO 9 km/h
Temperatura: 31°C
Rocío: 8°C
Humedad: 24%
Barómetro: 1016 hPa
Summary: Despejado
Visibility: greater than 10 km
2024/06/22 19:30 LEBZ 221930Z 32005KT CAVOK 31/08 Q1016
LEMD - Madrid/Barajas, Spain
Distance from station: NE 415km
Actualización: 22/06/2024 22:30
Despejado
Despejado
 Viento del NNE
Viento: NNE 13 km/h
Temperatura: 23°C
Rocío: 9°C
Humedad: 41%
Barómetro: 1020 hPa
Summary: Despejado
Visibility: greater than 10 km
2024/06/22 22:30 LEMD 222230Z 02007KT 340V070 CAVOK 23/09 Q1020 NOSIG